sensor_id;sensor_type;location;lat;lon;timestamp;P1;durP1;ratioP1;P2;durP2;ratioP2
66628;SDS011;53532;53.084;6.352;2022-12-24T00:02:22;52.17;;;18.95;;
66628;SDS011;53532;53.084;6.352;2022-12-24T00:04:50;43.88;;;18.38;;
66628;SDS011;53532;53.084;6.352;2022-12-24T00:07:16;48.35;;;18.42;;
66628;SDS011;53532;53.084;6.352;2022-12-24T00:09:42;58.25;;;19.95;;
66628;SDS011;53532;53.084;6.352;2022-12-24T00:12:08;57.00;;;19.50;;
66628;SDS011;53532;53.084;6.352;2022-12-24T00:14:34;49.33;;;19.02;;
66628;SDS011;53532;53.084;6.352;2022-12-24T00:17:00;54.88;;;19.20;;
66628;SDS011;53532;53.084;6.352;2022-12-24T00:19:27;52.00;;;19.27;;
66628;SDS011;53532;53.084;6.352;2022-12-24T00:21:54;51.03;;;18.88;;
66628;SDS011;53532;53.084;6.352;2022-12-24T00:24:20;42.22;;;17.63;;
66628;SDS011;53532;53.084;6.352;2022-12-24T00:26:46;46.47;;;18.52;;
66628;SDS011;53532;53.084;6.352;2022-12-24T00:29:12;42.22;;;19.10;;
66628;SDS011;53532;53.084;6.352;2022-12-24T00:31:39;63.42;;;20.45;;
66628;SDS011;53532;53.084;6.352;2022-12-24T00:34:05;51.00;;;18.98;;
66628;SDS011;53532;53.084;6.352;2022-12-24T00:36:32;52.03;;;18.48;;
66628;SDS011;53532;53.084;6.352;2022-12-24T00:39:00;45.90;;;18.27;;
66628;SDS011;53532;53.084;6.352;2022-12-24T00:41:26;72.32;;;20.67;;
66628;SDS011;53532;53.084;6.352;2022-12-24T00:43:56;51.60;;;20.05;;
66628;SDS011;53532;53.084;6.352;2022-12-24T00:46:23;51.70;;;19.63;;
66628;SDS011;53532;53.084;6.352;2022-12-24T00:48:49;58.15;;;19.63;;
66628;SDS011;53532;53.084;6.352;2022-12-24T00:51:15;53.88;;;19.33;;
66628;SDS011;53532;53.084;6.352;2022-12-24T00:53:42;62.13;;;19.58;;
66628;SDS011;53532;53.084;6.352;2022-12-24T00:56:09;47.08;;;18.90;;
66628;SDS011;53532;53.084;6.352;2022-12-24T00:58:35;46.00;;;19.50;;
66628;SDS011;53532;53.084;6.352;2022-12-24T01:01:02;65.78;;;20.13;;
66628;SDS011;53532;53.084;6.352;2022-12-24T01:03:28;51.13;;;19.17;;
66628;SDS011;53532;53.084;6.352;2022-12-24T01:06:00;66.78;;;20.52;;
66628;SDS011;53532;53.084;6.352;2022-12-24T01:08:26;53.08;;;19.13;;
66628;SDS011;53532;53.084;6.352;2022-12-24T01:10:53;55.53;;;19.75;;
66628;SDS011;53532;53.084;6.352;2022-12-24T01:13:20;71.72;;;20.67;;
66628;SDS011;53532;53.084;6.352;2022-12-24T01:15:46;49.88;;;19.60;;
66628;SDS011;53532;53.084;6.352;2022-12-24T01:18:13;71.35;;;20.50;;
66628;SDS011;53532;53.084;6.352;2022-12-24T01:20:39;71.57;;;20.90;;
66628;SDS011;53532;53.084;6.352;2022-12-24T01:23:05;71.65;;;20.25;;
66628;SDS011;53532;53.084;6.352;2022-12-24T01:25:31;100.50;;;22.52;;
66628;SDS011;53532;53.084;6.352;2022-12-24T01:27:57;75.28;;;20.80;;
66628;SDS011;53532;53.084;6.352;2022-12-24T01:30:25;84.80;;;22.42;;
66628;SDS011;53532;53.084;6.352;2022-12-24T01:32:51;57.40;;;20.10;;
66628;SDS011;53532;53.084;6.352;2022-12-24T01:35:17;63.38;;;19.55;;
66628;SDS011;53532;53.084;6.352;2022-12-24T01:37:43;63.28;;;20.40;;
66628;SDS011;53532;53.084;6.352;2022-12-24T01:40:10;65.45;;;20.88;;
66628;SDS011;53532;53.084;6.352;2022-12-24T01:42:57;87.50;;;22.02;;
66628;SDS011;53532;53.084;6.352;2022-12-24T01:45:44;70.90;;;22.13;;
66628;SDS011;53532;53.084;6.352;2022-12-24T01:48:15;81.75;;;22.35;;
66628;SDS011;53532;53.084;6.352;2022-12-24T01:50:42;77.40;;;22.58;;
66628;SDS011;53532;53.084;6.352;2022-12-24T01:53:08;100.35;;;24.42;;
66628;SDS011;53532;53.084;6.352;2022-12-24T01:55:35;91.38;;;23.23;;
66628;SDS011;53532;53.084;6.352;2022-12-24T01:58:01;51.60;;;19.95;;
66628;SDS011;53532;53.084;6.352;2022-12-24T02:00:28;58.35;;;20.38;;
66628;SDS011;53532;53.084;6.352;2022-12-24T02:02:55;59.15;;;20.45;;
66628;SDS011;53532;53.084;6.352;2022-12-24T02:05:23;68.18;;;22.15;;
66628;SDS011;53532;53.084;6.352;2022-12-24T02:07:51;55.83;;;21.27;;
66628;SDS011;53532;53.084;6.352;2022-12-24T02:10:17;66.22;;;22.23;;
66628;SDS011;53532;53.084;6.352;2022-12-24T02:12:44;66.18;;;21.65;;
66628;SDS011;53532;53.084;6.352;2022-12-24T02:15:11;72.10;;;22.48;;
66628;SDS011;53532;53.084;6.352;2022-12-24T02:17:38;59.28;;;22.80;;
66628;SDS011;53532;53.084;6.352;2022-12-24T02:20:28;75.25;;;24.55;;
66628;SDS011;53532;53.084;6.352;2022-12-24T02:23:02;66.97;;;23.70;;
66628;SDS011;53532;53.084;6.352;2022-12-24T02:25:35;58.92;;;22.88;;
66628;SDS011;53532;53.084;6.352;2022-12-24T02:28:08;60.83;;;23.10;;
66628;SDS011;53532;53.084;6.352;2022-12-24T02:30:39;58.38;;;23.77;;
66628;SDS011;53532;53.084;6.352;2022-12-24T02:33:10;64.88;;;23.67;;
66628;SDS011;53532;53.084;6.352;2022-12-24T02:35:41;62.20;;;23.67;;
66628;SDS011;53532;53.084;6.352;2022-12-24T02:38:11;61.88;;;23.02;;
66628;SDS011;53532;53.084;6.352;2022-12-24T02:40:39;61.92;;;24.55;;
66628;SDS011;53532;53.084;6.352;2022-12-24T02:43:08;50.58;;;21.92;;
66628;SDS011;53532;53.084;6.352;2022-12-24T02:45:35;57.38;;;23.70;;
66628;SDS011;53532;53.084;6.352;2022-12-24T02:48:05;54.67;;;22.40;;
66628;SDS011;53532;53.084;6.352;2022-12-24T02:50:31;54.78;;;22.48;;
66628;SDS011;53532;53.084;6.352;2022-12-24T02:52:57;54.85;;;22.95;;
66628;SDS011;53532;53.084;6.352;2022-12-24T02:55:26;55.03;;;22.90;;
66628;SDS011;53532;53.084;6.352;2022-12-24T02:58:05;49.03;;;22.30;;
66628;SDS011;53532;53.084;6.352;2022-12-24T03:00:38;54.97;;;22.77;;
66628;SDS011;53532;53.084;6.352;2022-12-24T03:03:11;51.95;;;22.40;;
66628;SDS011;53532;53.084;6.352;2022-12-24T03:05:41;56.20;;;21.70;;
66628;SDS011;53532;53.084;6.352;2022-12-24T03:08:11;54.45;;;21.33;;
66628;SDS011;53532;53.084;6.352;2022-12-24T03:10:40;50.65;;;20.33;;
66628;SDS011;53532;53.084;6.352;2022-12-24T03:13:09;52.20;;;20.02;;
66628;SDS011;53532;53.084;6.352;2022-12-24T03:15:36;44.60;;;19.38;;
66628;SDS011;53532;53.084;6.352;2022-12-24T03:18:04;47.10;;;18.52;;
66628;SDS011;53532;53.084;6.352;2022-12-24T03:20:33;42.47;;;17.23;;
66628;SDS011;53532;53.084;6.352;2022-12-24T03:22:59;43.17;;;16.55;;
66628;SDS011;53532;53.084;6.352;2022-12-24T03:25:26;42.63;;;15.40;;
66628;SDS011;53532;53.084;6.352;2022-12-24T03:27:52;40.10;;;13.98;;
66628;SDS011;53532;53.084;6.352;2022-12-24T03:30:19;44.70;;;13.50;;
66628;SDS011;53532;53.084;6.352;2022-12-24T03:32:45;39.83;;;12.30;;
66628;SDS011;53532;53.084;6.352;2022-12-24T03:35:11;42.88;;;11.85;;
66628;SDS011;53532;53.084;6.352;2022-12-24T03:37:39;49.80;;;10.55;;
66628;SDS011;53532;53.084;6.352;2022-12-24T03:40:06;39.20;;;9.77;;
66628;SDS011;53532;53.084;6.352;2022-12-24T03:42:32;38.67;;;8.55;;
66628;SDS011;53532;53.084;6.352;2022-12-24T03:44:59;38.85;;;8.07;;
66628;SDS011;53532;53.084;6.352;2022-12-24T03:47:25;34.47;;;7.88;;
66628;SDS011;53532;53.084;6.352;2022-12-24T03:49:51;39.80;;;8.30;;
66628;SDS011;53532;53.084;6.352;2022-12-24T03:52:17;37.25;;;8.07;;
66628;SDS011;53532;53.084;6.352;2022-12-24T03:54:45;37.08;;;7.47;;
66628;SDS011;53532;53.084;6.352;2022-12-24T03:57:11;34.90;;;7.40;;
66628;SDS011;53532;53.084;6.352;2022-12-24T03:59:37;34.50;;;7.43;;
66628;SDS011;53532;53.084;6.352;2022-12-24T04:02:03;31.85;;;6.68;;
66628;SDS011;53532;53.084;6.352;2022-12-24T04:04:29;35.35;;;7.00;;
66628;SDS011;53532;53.084;6.352;2022-12-24T04:06:57;44.08;;;6.88;;
66628;SDS011;53532;53.084;6.352;2022-12-24T04:09:23;32.65;;;6.25;;
66628;SDS011;53532;53.084;6.352;2022-12-24T04:11:51;36.15;;;6.53;;
66628;SDS011;53532;53.084;6.352;2022-12-24T04:14:17;36.35;;;6.47;;
66628;SDS011;53532;53.084;6.352;2022-12-24T04:16:43;36.45;;;6.90;;
66628;SDS011;53532;53.084;6.352;2022-12-24T04:19:09;36.25;;;6.45;;
66628;SDS011;53532;53.084;6.352;2022-12-24T04:21:35;35.13;;;6.65;;
66628;SDS011;53532;53.084;6.352;2022-12-24T04:24:01;39.33;;;7.28;;
66628;SDS011;53532;53.084;6.352;2022-12-24T04:26:27;37.17;;;6.97;;
66628;SDS011;53532;53.084;6.352;2022-12-24T04:28:55;43.85;;;7.03;;
66628;SDS011;53532;53.084;6.352;2022-12-24T04:31:21;38.67;;;7.25;;
66628;SDS011;53532;53.084;6.352;2022-12-24T04:33:49;39.53;;;6.43;;
66628;SDS011;53532;53.084;6.352;2022-12-24T04:36:15;38.53;;;7.20;;
66628;SDS011;53532;53.084;6.352;2022-12-24T04:38:42;38.30;;;6.45;;
66628;SDS011;53532;53.084;6.352;2022-12-24T04:41:09;39.53;;;7.03;;
66628;SDS011;53532;53.084;6.352;2022-12-24T04:43:36;38.88;;;6.47;;
66628;SDS011;53532;53.084;6.352;2022-12-24T04:46:04;40.45;;;7.28;;
66628;SDS011;53532;53.084;6.352;2022-12-24T04:48:30;44.53;;;7.53;;
66628;SDS011;53532;53.084;6.352;2022-12-24T04:50:57;39.28;;;7.60;;
66628;SDS011;53532;53.084;6.352;2022-12-24T04:53:23;36.97;;;6.95;;
66628;SDS011;53532;53.084;6.352;2022-12-24T04:55:49;39.63;;;7.63;;
66628;SDS011;53532;53.084;6.352;2022-12-24T04:58:15;34.08;;;6.63;;
66628;SDS011;53532;53.084;6.352;2022-12-24T05:00:41;38.25;;;7.93;;
66628;SDS011;53532;53.084;6.352;2022-12-24T05:03:09;44.63;;;7.55;;
66628;SDS011;53532;53.084;6.352;2022-12-24T05:05:35;40.03;;;7.72;;
66628;SDS011;53532;53.084;6.352;2022-12-24T05:08:01;38.35;;;6.97;;
66628;SDS011;53532;53.084;6.352;2022-12-24T05:10:27;42.60;;;7.32;;
66628;SDS011;53532;53.084;6.352;2022-12-24T05:12:53;40.75;;;7.45;;
66628;SDS011;53532;53.084;6.352;2022-12-24T05:15:19;40.15;;;6.72;;
66628;SDS011;53532;53.084;6.352;2022-12-24T05:17:46;44.42;;;7.03;;
66628;SDS011;53532;53.084;6.352;2022-12-24T05:20:13;39.33;;;7.75;;
66628;SDS011;53532;53.084;6.352;2022-12-24T05:22:40;42.45;;;7.43;;
66628;SDS011;53532;53.084;6.352;2022-12-24T05:25:25;38.40;;;7.20;;
66628;SDS011;53532;53.084;6.352;2022-12-24T05:28:11;39.72;;;7.22;;
66628;SDS011;53532;53.084;6.352;2022-12-24T05:30:37;44.67;;;7.78;;
66628;SDS011;53532;53.084;6.352;2022-12-24T05:33:03;48.67;;;7.45;;
66628;SDS011;53532;53.084;6.352;2022-12-24T05:35:30;37.40;;;6.97;;
66628;SDS011;53532;53.084;6.352;2022-12-24T05:37:57;44.00;;;7.20;;
66628;SDS011;53532;53.084;6.352;2022-12-24T05:40:23;40.78;;;7.38;;
66628;SDS011;53532;53.084;6.352;2022-12-24T05:42:49;41.88;;;7.35;;
66628;SDS011;53532;53.084;6.352;2022-12-24T05:45:16;42.25;;;7.20;;
66628;SDS011;53532;53.084;6.352;2022-12-24T05:47:42;40.10;;;7.40;;
66628;SDS011;53532;53.084;6.352;2022-12-24T05:50:09;44.22;;;6.88;;
66628;SDS011;53532;53.084;6.352;2022-12-24T05:52:36;45.35;;;7.43;;
66628;SDS011;53532;53.084;6.352;2022-12-24T05:55:03;45.88;;;8.00;;
66628;SDS011;53532;53.084;6.352;2022-12-24T05:57:29;51.97;;;8.30;;
66628;SDS011;53532;53.084;6.352;2022-12-24T05:59:55;41.63;;;7.30;;
66628;SDS011;53532;53.084;6.352;2022-12-24T06:02:21;37.75;;;6.95;;
66628;SDS011;53532;53.084;6.352;2022-12-24T06:04:47;52.78;;;7.80;;
66628;SDS011;53532;53.084;6.352;2022-12-24T06:07:13;45.72;;;8.13;;
66628;SDS011;53532;53.084;6.352;2022-12-24T06:09:41;44.70;;;7.05;;
66628;SDS011;53532;53.084;6.352;2022-12-24T06:12:07;44.90;;;7.20;;
66628;SDS011;53532;53.084;6.352;2022-12-24T06:14:33;45.83;;;7.70;;
66628;SDS011;53532;53.084;6.352;2022-12-24T06:16:59;44.67;;;7.75;;
66628;SDS011;53532;53.084;6.352;2022-12-24T06:19:25;46.08;;;7.78;;
66628;SDS011;53532;53.084;6.352;2022-12-24T06:21:51;47.75;;;7.22;;
66628;SDS011;53532;53.084;6.352;2022-12-24T06:24:18;41.00;;;7.32;;
66628;SDS011;53532;53.084;6.352;2022-12-24T06:26:45;43.03;;;7.10;;
66628;SDS011;53532;53.084;6.352;2022-12-24T06:29:11;47.80;;;8.20;;
66628;SDS011;53532;53.084;6.352;2022-12-24T06:31:37;41.15;;;7.35;;
66628;SDS011;53532;53.084;6.352;2022-12-24T06:34:03;51.47;;;7.90;;
66628;SDS011;53532;53.084;6.352;2022-12-24T06:36:30;34.63;;;6.97;;
66628;SDS011;53532;53.084;6.352;2022-12-24T06:38:56;42.97;;;7.90;;
66628;SDS011;53532;53.084;6.352;2022-12-24T06:41:22;38.17;;;7.05;;
66628;SDS011;53532;53.084;6.352;2022-12-24T06:43:51;45.63;;;8.57;;
66628;SDS011;53532;53.084;6.352;2022-12-24T06:46:17;43.78;;;7.50;;
66628;SDS011;53532;53.084;6.352;2022-12-24T06:48:44;45.92;;;7.40;;
66628;SDS011;53532;53.084;6.352;2022-12-24T06:51:11;53.72;;;7.85;;
66628;SDS011;53532;53.084;6.352;2022-12-24T06:53:37;40.72;;;6.85;;
66628;SDS011;53532;53.084;6.352;2022-12-24T06:56:04;41.88;;;7.13;;
66628;SDS011;53532;53.084;6.352;2022-12-24T06:58:31;37.35;;;6.97;;
66628;SDS011;53532;53.084;6.352;2022-12-24T07:01:01;44.58;;;7.85;;
66628;SDS011;53532;53.084;6.352;2022-12-24T07:03:27;40.38;;;6.93;;
66628;SDS011;53532;53.084;6.352;2022-12-24T07:05:53;37.58;;;7.20;;
66628;SDS011;53532;53.084;6.352;2022-12-24T07:08:19;45.38;;;8.63;;
66628;SDS011;53532;53.084;6.352;2022-12-24T07:10:47;47.60;;;8.48;;
66628;SDS011;53532;53.084;6.352;2022-12-24T07:13:14;45.03;;;8.15;;
66628;SDS011;53532;53.084;6.352;2022-12-24T07:15:40;44.53;;;8.45;;
66628;SDS011;53532;53.084;6.352;2022-12-24T07:18:07;37.25;;;7.72;;
66628;SDS011;53532;53.084;6.352;2022-12-24T07:20:33;46.45;;;7.93;;
66628;SDS011;53532;53.084;6.352;2022-12-24T07:22:59;45.08;;;8.52;;
66628;SDS011;53532;53.084;6.352;2022-12-24T07:25:26;43.20;;;9.63;;
66628;SDS011;53532;53.084;6.352;2022-12-24T07:27:52;45.90;;;9.00;;
66628;SDS011;53532;53.084;6.352;2022-12-24T07:30:18;52.33;;;8.90;;
66628;SDS011;53532;53.084;6.352;2022-12-24T07:32:44;53.80;;;8.45;;
66628;SDS011;53532;53.084;6.352;2022-12-24T07:35:12;45.67;;;8.57;;
66628;SDS011;53532;53.084;6.352;2022-12-24T07:37:38;45.95;;;7.47;;
66628;SDS011;53532;53.084;6.352;2022-12-24T07:40:04;46.28;;;8.50;;
66628;SDS011;53532;53.084;6.352;2022-12-24T07:42:33;53.63;;;8.52;;
66628;SDS011;53532;53.084;6.352;2022-12-24T07:45:00;42.65;;;7.75;;
66628;SDS011;53532;53.084;6.352;2022-12-24T07:47:26;44.75;;;8.35;;
66628;SDS011;53532;53.084;6.352;2022-12-24T07:49:52;45.33;;;7.78;;
66628;SDS011;53532;53.084;6.352;2022-12-24T07:52:20;47.78;;;8.45;;
66628;SDS011;53532;53.084;6.352;2022-12-24T07:54:46;48.95;;;8.23;;
66628;SDS011;53532;53.084;6.352;2022-12-24T07:57:12;48.72;;;8.63;;
66628;SDS011;53532;53.084;6.352;2022-12-24T07:59:38;45.25;;;7.82;;
66628;SDS011;53532;53.084;6.352;2022-12-24T08:02:04;43.95;;;8.10;;
66628;SDS011;53532;53.084;6.352;2022-12-24T08:04:31;49.47;;;8.30;;
66628;SDS011;53532;53.084;6.352;2022-12-24T08:07:00;48.53;;;9.50;;
66628;SDS011;53532;53.084;6.352;2022-12-24T08:09:28;43.28;;;8.82;;
66628;SDS011;53532;53.084;6.352;2022-12-24T08:11:55;40.22;;;9.35;;
66628;SDS011;53532;53.084;6.352;2022-12-24T08:14:21;48.38;;;9.55;;
66628;SDS011;53532;53.084;6.352;2022-12-24T08:16:47;48.92;;;9.05;;
66628;SDS011;53532;53.084;6.352;2022-12-24T08:19:14;48.47;;;9.50;;
66628;SDS011;53532;53.084;6.352;2022-12-24T08:21:40;52.15;;;9.90;;
66628;SDS011;53532;53.084;6.352;2022-12-24T08:24:06;51.92;;;9.32;;
66628;SDS011;53532;53.084;6.352;2022-12-24T08:26:33;48.50;;;8.48;;
66628;SDS011;53532;53.084;6.352;2022-12-24T08:29:00;48.58;;;9.30;;
66628;SDS011;53532;53.084;6.352;2022-12-24T08:31:26;50.70;;;9.27;;
66628;SDS011;53532;53.084;6.352;2022-12-24T08:33:52;49.45;;;8.98;;
66628;SDS011;53532;53.084;6.352;2022-12-24T08:36:18;44.22;;;8.32;;
66628;SDS011;53532;53.084;6.352;2022-12-24T08:38:44;40.10;;;8.82;;
66628;SDS011;53532;53.084;6.352;2022-12-24T08:41:10;59.33;;;9.57;;
66628;SDS011;53532;53.084;6.352;2022-12-24T08:43:38;41.55;;;8.55;;
66628;SDS011;53532;53.084;6.352;2022-12-24T08:46:04;49.45;;;8.43;;
66628;SDS011;53532;53.084;6.352;2022-12-24T08:48:31;50.42;;;9.43;;
66628;SDS011;53532;53.084;6.352;2022-12-24T08:50:57;45.90;;;8.32;;
66628;SDS011;53532;53.084;6.352;2022-12-24T08:53:23;39.45;;;8.68;;
66628;SDS011;53532;53.084;6.352;2022-12-24T08:55:49;39.38;;;7.38;;
66628;SDS011;53532;53.084;6.352;2022-12-24T08:58:16;40.38;;;8.48;;
66628;SDS011;53532;53.084;6.352;2022-12-24T09:00:43;46.70;;;8.07;;
66628;SDS011;53532;53.084;6.352;2022-12-24T09:03:10;53.30;;;9.27;;
66628;SDS011;53532;53.084;6.352;2022-12-24T09:05:38;42.85;;;8.57;;
66628;SDS011;53532;53.084;6.352;2022-12-24T09:08:04;43.05;;;8.00;;
66628;SDS011;53532;53.084;6.352;2022-12-24T09:10:30;36.65;;;7.80;;
66628;SDS011;53532;53.084;6.352;2022-12-24T09:12:56;43.45;;;7.70;;
66628;SDS011;53532;53.084;6.352;2022-12-24T09:15:22;43.78;;;8.13;;
66628;SDS011;53532;53.084;6.352;2022-12-24T09:17:50;37.22;;;7.93;;
66628;SDS011;53532;53.084;6.352;2022-12-24T09:20:16;41.35;;;7.55;;
66628;SDS011;53532;53.084;6.352;2022-12-24T09:22:42;46.58;;;8.43;;
66628;SDS011;53532;53.084;6.352;2022-12-24T09:25:08;44.53;;;8.30;;
66628;SDS011;53532;53.084;6.352;2022-12-24T09:27:35;45.38;;;8.32;;
66628;SDS011;53532;53.084;6.352;2022-12-24T09:30:01;34.80;;;7.47;;
66628;SDS011;53532;53.084;6.352;2022-12-24T09:32:27;42.60;;;8.68;;
66628;SDS011;53532;53.084;6.352;2022-12-24T09:34:55;37.25;;;7.43;;
66628;SDS011;53532;53.084;6.352;2022-12-24T09:37:21;41.33;;;8.80;;
66628;SDS011;53532;53.084;6.352;2022-12-24T09:39:47;44.80;;;8.00;;
66628;SDS011;53532;53.084;6.352;2022-12-24T09:42:16;37.50;;;8.07;;
66628;SDS011;53532;53.084;6.352;2022-12-24T09:44:44;45.60;;;8.40;;
66628;SDS011;53532;53.084;6.352;2022-12-24T09:47:15;46.35;;;8.10;;
66628;SDS011;53532;53.084;6.352;2022-12-24T09:49:44;37.97;;;8.15;;
66628;SDS011;53532;53.084;6.352;2022-12-24T09:52:14;44.33;;;8.02;;
66628;SDS011;53532;53.084;6.352;2022-12-24T09:54:43;44.80;;;7.82;;
66628;SDS011;53532;53.084;6.352;2022-12-24T09:57:12;40.63;;;8.52;;
66628;SDS011;53532;53.084;6.352;2022-12-24T09:59:41;41.77;;;7.80;;
66628;SDS011;53532;53.084;6.352;2022-12-24T10:02:08;39.80;;;8.00;;
66628;SDS011;53532;53.084;6.352;2022-12-24T10:04:36;42.88;;;7.85;;
66628;SDS011;53532;53.084;6.352;2022-12-24T10:07:04;35.92;;;7.43;;
66628;SDS011;53532;53.084;6.352;2022-12-24T10:09:35;32.00;;;6.88;;
66628;SDS011;53532;53.084;6.352;2022-12-24T10:12:04;33.47;;;6.60;;
66628;SDS011;53532;53.084;6.352;2022-12-24T10:14:37;39.35;;;7.95;;
66628;SDS011;53532;53.084;6.352;2022-12-24T10:17:11;32.05;;;6.90;;
66628;SDS011;53532;53.084;6.352;2022-12-24T10:19:42;31.90;;;5.82;;
66628;SDS011;53532;53.084;6.352;2022-12-24T10:22:14;31.02;;;6.55;;
66628;SDS011;53532;53.084;6.352;2022-12-24T10:24:46;32.83;;;6.47;;
66628;SDS011;53532;53.084;6.352;2022-12-24T10:27:14;30.15;;;6.40;;
66628;SDS011;53532;53.084;6.352;2022-12-24T10:29:41;31.25;;;6.03;;
66628;SDS011;53532;53.084;6.352;2022-12-24T10:32:10;30.60;;;6.28;;
66628;SDS011;53532;53.084;6.352;2022-12-24T10:34:42;28.92;;;6.90;;
66628;SDS011;53532;53.084;6.352;2022-12-24T10:37:10;29.40;;;6.13;;
66628;SDS011;53532;53.084;6.352;2022-12-24T10:39:38;31.50;;;6.75;;
66628;SDS011;53532;53.084;6.352;2022-12-24T10:42:06;33.75;;;7.45;;
66628;SDS011;53532;53.084;6.352;2022-12-24T10:44:32;30.13;;;5.78;;
66628;SDS011;53532;53.084;6.352;2022-12-24T10:46:59;33.88;;;7.28;;
66628;SDS011;53532;53.084;6.352;2022-12-24T10:49:28;35.08;;;7.18;;
66628;SDS011;53532;53.084;6.352;2022-12-24T10:51:55;36.50;;;7.05;;
66628;SDS011;53532;53.084;6.352;2022-12-24T10:54:23;33.95;;;8.63;;
66628;SDS011;53532;53.084;6.352;2022-12-24T10:56:50;33.10;;;6.75;;
66628;SDS011;53532;53.084;6.352;2022-12-24T10:59:25;30.95;;;6.20;;
66628;SDS011;53532;53.084;6.352;2022-12-24T11:01:53;33.58;;;7.30;;
66628;SDS011;53532;53.084;6.352;2022-12-24T11:04:20;39.35;;;7.20;;
66628;SDS011;53532;53.084;6.352;2022-12-24T11:06:54;31.35;;;6.05;;
66628;SDS011;53532;53.084;6.352;2022-12-24T11:09:22;31.08;;;6.05;;
66628;SDS011;53532;53.084;6.352;2022-12-24T11:11:48;30.33;;;6.18;;
66628;SDS011;53532;53.084;6.352;2022-12-24T11:14:15;31.92;;;6.78;;
66628;SDS011;53532;53.084;6.352;2022-12-24T11:16:47;29.17;;;6.97;;
66628;SDS011;53532;53.084;6.352;2022-12-24T11:19:14;24.25;;;5.47;;
66628;SDS011;53532;53.084;6.352;2022-12-24T11:21:41;34.45;;;5.85;;
66628;SDS011;53532;53.084;6.352;2022-12-24T11:24:19;27.08;;;6.05;;
66628;SDS011;53532;53.084;6.352;2022-12-24T11:26:46;30.52;;;5.80;;
66628;SDS011;53532;53.084;6.352;2022-12-24T11:29:13;27.85;;;6.38;;
66628;SDS011;53532;53.084;6.352;2022-12-24T11:31:40;29.05;;;5.43;;
66628;SDS011;53532;53.084;6.352;2022-12-24T11:34:20;32.50;;;6.00;;
66628;SDS011;53532;53.084;6.352;2022-12-24T11:36:47;28.42;;;6.13;;
66628;SDS011;53532;53.084;6.352;2022-12-24T11:39:16;30.35;;;6.00;;
66628;SDS011;53532;53.084;6.352;2022-12-24T11:41:43;23.92;;;5.20;;
66628;SDS011;53532;53.084;6.352;2022-12-24T11:44:09;30.65;;;5.93;;
66628;SDS011;53532;53.084;6.352;2022-12-24T11:46:37;23.58;;;5.47;;
66628;SDS011;53532;53.084;6.352;2022-12-24T11:49:05;27.90;;;5.93;;
66628;SDS011;53532;53.084;6.352;2022-12-24T11:51:39;33.85;;;5.72;;
66628;SDS011;53532;53.084;6.352;2022-12-24T11:54:07;28.50;;;5.30;;
66628;SDS011;53532;53.084;6.352;2022-12-24T11:56:35;24.23;;;5.50;;
66628;SDS011;53532;53.084;6.352;2022-12-24T11:59:04;23.80;;;5.70;;
66628;SDS011;53532;53.084;6.352;2022-12-24T12:01:33;26.67;;;5.15;;
66628;SDS011;53532;53.084;6.352;2022-12-24T12:04:00;26.23;;;5.90;;
66628;SDS011;53532;53.084;6.352;2022-12-24T12:06:30;28.10;;;6.10;;
66628;SDS011;53532;53.084;6.352;2022-12-24T12:09:00;28.10;;;5.15;;
66628;SDS011;53532;53.084;6.352;2022-12-24T12:11:27;25.95;;;4.90;;
66628;SDS011;53532;53.084;6.352;2022-12-24T12:13:54;26.42;;;5.10;;
66628;SDS011;53532;53.084;6.352;2022-12-24T12:16:22;23.08;;;5.07;;
66628;SDS011;53532;53.084;6.352;2022-12-24T12:18:52;21.58;;;4.70;;
66628;SDS011;53532;53.084;6.352;2022-12-24T12:21:19;24.73;;;5.32;;
66628;SDS011;53532;53.084;6.352;2022-12-24T12:23:48;22.02;;;5.00;;
66628;SDS011;53532;53.084;6.352;2022-12-24T12:26:18;22.63;;;4.82;;
66628;SDS011;53532;53.084;6.352;2022-12-24T12:28:48;22.60;;;4.50;;
66628;SDS011;53532;53.084;6.352;2022-12-24T12:31:18;25.88;;;5.10;;
66628;SDS011;53532;53.084;6.352;2022-12-24T12:33:46;24.55;;;4.80;;
66628;SDS011;53532;53.084;6.352;2022-12-24T12:36:14;23.10;;;4.78;;
66628;SDS011;53532;53.084;6.352;2022-12-24T12:38:42;23.98;;;4.75;;
66628;SDS011;53532;53.084;6.352;2022-12-24T12:41:20;25.85;;;4.88;;
66628;SDS011;53532;53.084;6.352;2022-12-24T12:46:49;24.75;;;5.57;;
66628;SDS011;53532;53.084;6.352;2022-12-24T12:49:23;21.10;;;4.53;;
66628;SDS011;53532;53.084;6.352;2022-12-24T12:51:52;28.58;;;4.70;;
66628;SDS011;53532;53.084;6.352;2022-12-24T12:54:27;29.57;;;5.00;;
66628;SDS011;53532;53.084;6.352;2022-12-24T12:56:59;23.27;;;4.90;;
66628;SDS011;53532;53.084;6.352;2022-12-24T12:59:28;25.27;;;4.90;;
66628;SDS011;53532;53.084;6.352;2022-12-24T13:01:57;23.20;;;4.53;;
66628;SDS011;53532;53.084;6.352;2022-12-24T13:04:43;24.27;;;4.53;;
66628;SDS011;53532;53.084;6.352;2022-12-24T13:07:19;25.13;;;5.15;;
66628;SDS011;53532;53.084;6.352;2022-12-24T13:18:16;23.23;;;4.63;;
66628;SDS011;53532;53.084;6.352;2022-12-24T13:20:47;24.73;;;5.15;;
66628;SDS011;53532;53.084;6.352;2022-12-24T13:23:14;23.60;;;4.97;;
66628;SDS011;53532;53.084;6.352;2022-12-24T13:25:43;25.13;;;4.53;;
66628;SDS011;53532;53.084;6.352;2022-12-24T13:28:17;24.35;;;5.30;;
66628;SDS011;53532;53.084;6.352;2022-12-24T13:33:47;23.65;;;4.97;;
66628;SDS011;53532;53.084;6.352;2022-12-24T13:39:17;25.85;;;4.78;;
66628;SDS011;53532;53.084;6.352;2022-12-24T13:41:50;28.40;;;5.50;;
66628;SDS011;53532;53.084;6.352;2022-12-24T13:44:20;23.02;;;4.78;;
66628;SDS011;53532;53.084;6.352;2022-12-24T13:46:48;22.10;;;5.30;;
66628;SDS011;53532;53.084;6.352;2022-12-24T13:49:17;27.17;;;5.20;;
66628;SDS011;53532;53.084;6.352;2022-12-24T13:51:44;21.77;;;4.90;;
66628;SDS011;53532;53.084;6.352;2022-12-24T13:54:11;21.90;;;4.60;;
66628;SDS011;53532;53.084;6.352;2022-12-24T13:56:38;21.48;;;4.35;;
66628;SDS011;53532;53.084;6.352;2022-12-24T13:59:10;23.20;;;4.90;;
66628;SDS011;53532;53.084;6.352;2022-12-24T14:01:37;24.13;;;4.83;;
66628;SDS011;53532;53.084;6.352;2022-12-24T14:04:04;19.80;;;4.50;;
66628;SDS011;53532;53.084;6.352;2022-12-24T14:06:38;19.77;;;4.60;;
66628;SDS011;53532;53.084;6.352;2022-12-24T14:09:06;21.50;;;4.60;;
66628;SDS011;53532;53.084;6.352;2022-12-24T14:14:28;26.38;;;5.38;;
66628;SDS011;53532;53.084;6.352;2022-12-24T14:16:55;26.55;;;4.93;;
66628;SDS011;53532;53.084;6.352;2022-12-24T14:19:23;21.90;;;4.93;;
66628;SDS011;53532;53.084;6.352;2022-12-24T14:21:53;18.45;;;4.10;;
66628;SDS011;53532;53.084;6.352;2022-12-24T14:24:21;23.23;;;4.40;;
66628;SDS011;53532;53.084;6.352;2022-12-24T14:26:50;19.67;;;4.80;;
66628;SDS011;53532;53.084;6.352;2022-12-24T14:29:19;20.35;;;4.50;;
66628;SDS011;53532;53.084;6.352;2022-12-24T14:31:50;23.42;;;4.95;;
66628;SDS011;53532;53.084;6.352;2022-12-24T14:34:17;23.05;;;5.13;;
66628;SDS011;53532;53.084;6.352;2022-12-24T14:36:43;21.80;;;4.75;;
66628;SDS011;53532;53.084;6.352;2022-12-24T14:39:20;23.45;;;5.63;;
66628;SDS011;53532;53.084;6.352;2022-12-24T14:41:49;21.90;;;4.88;;
66628;SDS011;53532;53.084;6.352;2022-12-24T14:44:22;17.88;;;4.40;;
66628;SDS011;53532;53.084;6.352;2022-12-24T14:46:53;23.17;;;5.10;;
66628;SDS011;53532;53.084;6.352;2022-12-24T14:49:26;22.63;;;4.80;;
66628;SDS011;53532;53.084;6.352;2022-12-24T14:51:56;21.92;;;5.55;;
66628;SDS011;53532;53.084;6.352;2022-12-24T14:54:36;17.80;;;4.85;;
66628;SDS011;53532;53.084;6.352;2022-12-24T14:59:47;19.50;;;5.07;;